UGTB Airport Information

Runway Information
Runway 13R Length 9843 ft width 147 ft
Elevation 1624 ft Threshold ft Heading 136
Runway 31L Length 9843 ft Width 147 ft
Elevation 1558 ft Threshold ft Heading 316
Runway 13L Length 8202 ft width 196 ft
Elevation 1621 ft Threshold ft Heading 133
Runway 31R Length 8202 ft Width 196 ft
Elevation 1572 ft Threshold ft Heading 313
Airport Frequencies
Type APP Name APP Frequency 127.2 MHZ
Type ATIS Name ATIS Frequency 132.8 MHZ
Type GND Name GND Frequency 119 MHZ
Type TWR Name TWR Frequency 128 MHZ
Airport Navaids
Airport Weather Information & NOTAM
ADDS - METARS form results

(1458 UTC 11 August 2022)
Data provider http://aviationweather.gov/metar/data/
 
METAR text: UGTB 111430Z 22003KT 180V340 CAVOK 29/14 Q1012 NOSIG
Conditions at: UGTB (TBILISI/NOVO-AL , GE) observed 1430 UTC 11 August 2022
Temperature: 29.0°C (84°F)
Dewpoint: 14.0°C (57°F) [RH = 40%]
Pressure (altimeter): 29.88 inches Hg (1012.0 mb)
Winds: from the SW (220 degrees) at 3 MPH (3 knots; 1.5 m/s)
Visibility: 6 or more miles (10+ km)
Ceiling: ceiling and visibility are OK
Clouds: unknown
Weather: no significant weather observed at this time

METAR text: UGTB 111400Z 25003KT 210V290 CAVOK 30/14 Q1012 NOSIG
Conditions at: UGTB (TBILISI/NOVO-AL , GE) observed 1400 UTC 11 August 2022
Temperature: 30.0°C (86°F)
Dewpoint: 14.0°C (57°F) [RH = 38%]
Pressure (altimeter): 29.88 inches Hg (1012.0 mb)
Winds: from the WSW (250 degrees) at 3 MPH (3 knots; 1.5 m/s)
Visibility: 6 or more miles (10+ km)
Ceiling: ceiling and visibility are OK
Clouds: unknown
Weather: no significant weather observed at this time

Forecast for: UGTB (TBILISI/NOVO-AL , GE)
Text: TAF UGTB 111100Z 1112/1212 16008KT CAVOK TX32/1112Z TN23/1202Z
Forecast period: 1200 UTC 11 August 2022 to 1200 UTC 12 August 2022
Forecast type: FROM: standard forecast or significant change
Winds: from the SSE (160 degrees) at 9 MPH (8 knots; 4.1 m/s)
Visibility: 6 or more miles (10+ km)
Ceiling: unknown
Clouds: missing
Weather: no significant weather forecast for this period
Text: TEMPO 1117/1204 BKN040
Forecast period: 1700 UTC 11 August 2022 to 0400 UTC 12 August 2022
Forecast type: TEMPORARY: The following changes expected for less than half the time period
Visibility: missing
Ceiling: 4000 feet AGL
Clouds: broken clouds at 4000 feet AGL
Weather: no significant weather forecast for this period